Αρχική σελίδα
METAR-TAF:

METAR-TAF

Αεροδρόμια :

Χαρτούμ, Σουδάν

γεωγραφικό πλάτος: 15-36N, γεωγραφικό μήκος: 032-33E, υψόμετρο: 382 μ

Παρών καιρός

Η αναφορά έγινε 15 λεπτά πριν, στις 18:00 UTC
Άνεμος 7 kt από Ν
Θερμοκρασία 31°C
Υγρασία 49%
Πίεση 1011 hPa
Ορατότητα 10 χλμ και άνω
Δεν υπάρχουν νέφη με βάση κάτω από τα 1500 μ. και δεν υπάρχουν νέφη σωρειτομελανίτες.

METAR: HSSS 191800Z 18007KT CAVOK 31/19 Q1011 NOSIG

Χρόνος: 21:15 (18:15 UTC)

Πρόγνωση Καιρού

Η αναφορά έγινε 1 ώρα και 15 λεπτά πριν, στις 17:00 UTC
Η πρόγνωση ισχύει από τις 19 στις 18 UTC έως τις 20 στις 24 UTC
Άνεμος 10 kt από Ν/ΝΔ με ριπές μέχρι 20 kt
Ορατότητα 10 χλμ και άνω
Λίγα νέφη σε ύψος 4000 πόδια
Διάσπαρτα νέφη σε ύψος 14000 πόδια

TAF: HSSS 191700Z 1918/2024 21010G20KT 9999 FEW040 SCT140

Μετεωρολογικές αναφορές και προγνώσεις για περισσότερα από 4000 αεροδρόμια (δελτία METAR και TAF).

Οι διαθέσιμοι σταθμοί απεικονίζονται στο χάρτη με κίτρινες και κόκκινες κουκκίδες.

Μετακινήστε το ποντίκι πάνω από τις κουκκίδες για να δείτε το όνομα του σταθμού.

Στη συνέχεια, κάντε κλικ για να δείτε τις μετεωρολογικές αναφορές και τις προγνώσεις καιρού.

Για να αλλάξετε το χάρτη: κάντε κλικ στα πράσινα κουμπιά με τον μαύρο σταυρό για να ζουμάρετε, στο πράσινο κουμπί με την παύλα για να αφαιρέσετε το ζουμ ή στα πράσινα βέλη για να αντιπαραβάλλετε χάρτες.


METAR-TAF: